Main page
METAR-TAF:

METAR-TAF

Airports :

Miles City Airport

Miles City, Montana, United States

latitude: 46-25-41N, longitude: 105-53-11W, elevation: 2627 ft

Current weather observation

The report was made 18 minutes ago, at 05:53 UTC
Wind 7 mph from the West
Temperature -2°F
Humidity 77%
Pressure 30.06 in. Hg
Visibility: 10 miles
Clear sky

METAR: KMLS 080553Z AUTO 28006KT 10SM CLR M19/M22 A3006 RMK AO2 SLP238 T11941217 11133 21200 58000

Time: 23:11 (06:11 UTC)

Forecast

The report was made 51 minutes ago, at 05:20 UTC
Forecast valid from 08 at 06 UTC to 09 at 06 UTC
Wind 3 mph from the West
Visibility: 6 miles
Clear sky

TAF: KMLS 080520Z 0806/0906 27003KT P6SM SKC

Weather observations and forecasts of more than 4000 airports (METAR and TAF reports).

The available stations are represented by yellow and red dots on the map.

Hover mouse over dot to see the name of the station.

Then click to see weather observations and forecasts.

To change the map : click on the green buttons with a black cross to zoom in, on the green button with a dash to zoom out, or on the green arrows for adjacent maps.


METAR-TAF: